createdAt,value
2018-05-17T00:00:20.058Z,0
2018-05-17T00:01:19.522Z,0
2018-05-17T00:02:19.970Z,0
2018-05-17T00:03:19.622Z,0
2018-05-17T00:04:19.917Z,0
2018-05-17T00:05:19.434Z,0
2018-05-17T00:06:19.998Z,0
2018-05-17T00:07:19.343Z,0
2018-05-17T00:08:19.708Z,0
2018-05-17T00:09:20.023Z,0
2018-05-17T00:10:19.486Z,0
2018-05-17T00:11:20.063Z,0
2018-05-17T00:12:41.135Z,0
2018-05-17T00:13:41.639Z,0
2018-05-17T00:14:40.900Z,0
2018-05-17T00:15:41.394Z,0
2018-05-17T00:17:02.883Z,0
2018-05-17T00:18:03.291Z,0
2018-05-17T00:19:03.650Z,0
2018-05-17T00:20:03.244Z,0
2018-05-17T00:21:04.880Z,0
2018-05-17T00:22:03.421Z,0
2018-05-17T00:23:03.998Z,0
2018-05-17T00:24:03.531Z,0
2018-05-17T00:25:24.102Z,0
2018-05-17T00:26:24.535Z,0
2018-05-17T00:27:25.057Z,0
2018-05-17T00:28:24.824Z,0
2018-05-17T00:29:24.254Z,0
2018-05-17T00:30:24.838Z,0
2018-05-17T00:31:24.334Z,0
2018-05-17T00:32:24.558Z,0
2018-05-17T00:33:24.176Z,0
2018-05-17T00:34:24.685Z,0
2018-05-17T00:35:24.092Z,0
2018-05-17T00:36:24.450Z,0
2018-05-17T00:37:24.952Z,0
2018-05-17T00:38:24.490Z,0
2018-05-17T00:39:24.768Z,0
2018-05-17T00:40:24.354Z,0
2018-05-17T00:41:24.773Z,0
2018-05-17T00:42:24.406Z,0
2018-05-17T00:43:25.069Z,0
2018-05-17T00:44:45.871Z,0
2018-05-17T00:45:46.393Z,0
2018-05-17T00:46:45.923Z,0
2018-05-17T00:47:46.282Z,0
2018-05-17T00:49:07.858Z,0
2018-05-17T00:50:07.322Z,0
2018-05-17T00:51:07.850Z,0
2018-05-17T00:52:07.946Z,0
2018-05-17T00:53:07.531Z,0
2018-05-17T00:54:07.211Z,0
2018-05-17T00:55:50.106Z,0
2018-05-17T00:57:12.013Z,0
2018-05-17T00:58:12.661Z,0
2018-05-17T00:59:33.209Z,0
2018-05-17T01:00:34.387Z,0
2018-05-17T01:01:33.982Z,0
2018-05-17T01:02:33.813Z,0
2018-05-17T01:03:34.159Z,0
2018-05-17T01:04:33.668Z,0
2018-05-17T01:05:33.668Z,0
2018-05-17T01:06:33.121Z,0
2018-05-17T01:07:33.381Z,0
2018-05-17T01:08:33.955Z,0
2018-05-17T01:09:33.287Z,0
2018-05-17T01:10:33.717Z,0
2018-05-17T01:11:33.189Z,0
2018-05-17T01:12:33.555Z,0
2018-05-17T01:13:34.295Z,0
2018-05-17T01:14:33.702Z,0
2018-05-17T01:15:55.207Z,0
2018-05-17T01:16:56.838Z,0
2018-05-17T01:17:56.385Z,0
2018-05-17T01:18:55.813Z,0
2018-05-17T01:19:56.175Z,0
2018-05-17T01:20:55.587Z,0
2018-05-17T01:21:56.106Z,0
2018-05-17T01:22:55.791Z,0
2018-05-17T01:23:56.390Z,0
2018-05-17T01:24:55.736Z,0
2018-05-17T01:25:55.222Z,0
2018-05-17T01:26:55.655Z,0
2018-05-17T01:27:56.267Z,0
2018-05-17T01:28:55.864Z,0
2018-05-17T01:29:56.192Z,0
2018-05-17T01:30:55.482Z,0
2018-05-17T01:31:55.778Z,0
2018-05-17T01:32:56.275Z,0
2018-05-17T01:33:55.849Z,0
2018-05-17T01:34:56.453Z,0
2018-05-17T01:35:56.036Z,0
2018-05-17T01:36:55.451Z,0
2018-05-17T01:37:56.147Z,0
2018-05-17T01:38:55.901Z,0
2018-05-17T01:39:55.223Z,0
2018-05-17T01:40:55.806Z,0
2018-05-17T01:41:55.291Z,0
2018-05-17T01:42:55.767Z,0
2018-05-17T01:43:55.421Z,0
2018-05-17T01:44:56.093Z,0
2018-05-17T01:45:55.404Z,0
2018-05-17T01:46:55.914Z,0
2018-05-17T01:47:55.463Z,0
2018-05-17T01:48:56.085Z,0
2018-05-17T01:49:55.510Z,0
2018-05-17T01:50:55.910Z,0
2018-05-17T01:51:55.379Z,0
2018-05-17T01:52:55.847Z,0
2018-05-17T01:54:16.146Z,0
2018-05-17T01:55:17.572Z,0
2018-05-17T01:56:16.918Z,0
2018-05-17T01:57:16.686Z,0
2018-05-17T01:58:17.410Z,0
2018-05-17T01:59:16.806Z,0
2018-05-17T02:00:16.227Z,0
2018-05-17T02:01:16.798Z,0
2018-05-17T02:02:16.344Z,0
2018-05-17T02:03:17.170Z,0
2018-05-17T02:04:37.863Z,0
2018-05-17T02:05:38.446Z,0
2018-05-17T02:06:37.900Z,0
2018-05-17T02:07:38.540Z,0
2018-05-17T02:08:58.967Z,0
2018-05-17T02:09:59.227Z,0
2018-05-17T02:10:59.708Z,0
2018-05-17T02:11:59.099Z,0
2018-05-17T02:12:59.700Z,0
2018-05-17T02:13:59.534Z,0
2018-05-17T02:15:41.416Z,0
2018-05-17T02:16:41.763Z,0
2018-05-17T02:18:03.408Z,0
2018-05-17T02:19:24.888Z,0
2018-05-17T02:20:25.554Z,0
2018-05-17T02:21:24.883Z,0
2018-05-17T02:22:25.489Z,0
2018-05-17T02:23:26.204Z,0
2018-05-17T02:24:25.638Z,0
2018-05-17T02:25:25.213Z,0
2018-05-17T02:26:25.542Z,0
2018-05-17T02:27:25.935Z,0
2018-05-17T02:28:26.479Z,0
2018-05-17T02:29:25.929Z,0
2018-05-17T02:30:25.985Z,0
2018-05-17T02:31:25.544Z,0
2018-05-17T02:32:25.870Z,0
2018-05-17T02:33:25.235Z,0
2018-05-17T02:34:25.508Z,0
2018-05-17T02:35:25.138Z,0
2018-05-17T02:36:25.730Z,0
2018-05-17T02:37:25.101Z,0
2018-05-17T02:38:47.476Z,0
2018-05-17T02:40:00.558Z,0
2018-05-17T02:40:48.050Z,0
2018-05-17T02:42:08.575Z,0
2018-05-17T02:43:09.012Z,0
2018-05-17T02:44:31.509Z,0
2018-05-17T02:45:31.960Z,0
2018-05-17T02:46:31.327Z,0
2018-05-17T02:47:31.875Z,0
2018-05-17T02:48:31.214Z,0
2018-05-17T02:49:31.515Z,0
2018-05-17T02:50:31.874Z,0
2018-05-17T02:51:32.294Z,0
2018-05-17T02:52:31.732Z,0
2018-05-17T02:53:32.011Z,0
2018-05-17T02:54:31.423Z,0
2018-05-17T02:55:31.877Z,0
2018-05-17T02:56:31.252Z,0
2018-05-17T02:57:31.912Z,0
2018-05-17T02:58:31.630Z,0
2018-05-17T02:59:31.872Z,0
2018-05-17T03:00:31.419Z,0
2018-05-17T03:01:32.549Z,0
2018-05-17T03:02:32.192Z,0
2018-05-17T03:03:32.976Z,0
2018-05-17T03:04:31.478Z,0
2018-05-17T03:05:32.586Z,0
2018-05-17T03:06:31.958Z,0
2018-05-17T03:07:31.767Z,0
2018-05-17T03:08:31.304Z,0
2018-05-17T03:09:31.639Z,0
2018-05-17T03:10:32.418Z,0
2018-05-17T03:11:32.233Z,0
2018-05-17T03:12:31.748Z,0
2018-05-17T03:13:31.358Z,0
2018-05-17T03:14:53.154Z,0
2018-05-17T03:15:53.634Z,0
2018-05-17T03:16:53.284Z,0
2018-05-17T03:17:53.767Z,0
2018-05-17T03:18:53.153Z,0
2018-05-17T03:19:53.659Z,0
2018-05-17T03:20:54.054Z,0
2018-05-17T03:21:53.446Z,0
2018-05-17T03:22:54.129Z,0
2018-05-17T03:23:53.509Z,1
2018-05-17T03:24:54.073Z,1
2018-05-17T03:25:53.802Z,1
2018-05-17T03:26:53.460Z,1
2018-05-17T03:27:54.024Z,1
2018-05-17T03:28:53.686Z,1
2018-05-17T03:29:53.072Z,1
2018-05-17T03:30:53.443Z,1
2018-05-17T03:31:54.059Z,2
2018-05-17T03:32:53.461Z,2
2018-05-17T03:33:53.148Z,2
2018-05-17T03:34:54.170Z,2
2018-05-17T03:36:14.818Z,2
2018-05-17T03:37:15.529Z,2
2018-05-17T03:38:36.333Z,3
2018-05-17T03:39:36.794Z,3
2018-05-17T03:40:37.064Z,3
2018-05-17T03:41:36.372Z,3
2018-05-17T03:42:36.784Z,3
2018-05-17T03:43:36.346Z,3
2018-05-17T03:44:36.914Z,3
2018-05-17T03:45:36.367Z,3
2018-05-17T03:46:36.854Z,4
2018-05-17T03:47:36.486Z,4
2018-05-17T03:48:36.952Z,4
2018-05-17T03:49:36.856Z,4
2018-05-17T03:50:36.358Z,4
2018-05-17T03:51:37.086Z,4
2018-05-17T03:52:36.705Z,5
2018-05-17T03:53:37.759Z,5
2018-05-17T03:54:37.305Z,5
2018-05-17T03:55:37.517Z,5
2018-05-17T03:56:37.252Z,5
2018-05-17T03:57:37.060Z,6
2018-05-17T03:58:36.963Z,6
2018-05-17T03:59:36.454Z,6
2018-05-17T04:00:58.190Z,7
2018-05-17T04:01:58.446Z,8
2018-05-17T04:02:58.834Z,8
2018-05-17T04:03:58.496Z,8
2018-05-17T04:04:58.219Z,8
2018-05-17T04:05:58.610Z,8
2018-05-17T04:06:58.105Z,8
2018-05-17T04:07:58.611Z,9
2018-05-17T04:08:58.061Z,9
2018-05-17T04:09:58.660Z,10
2018-05-17T04:11:20.016Z,10
2018-05-17T04:12:20.460Z,11
2018-05-17T04:13:20.996Z,12
2018-05-17T04:14:20.549Z,12
2018-05-17T04:15:20.252Z,13
2018-05-17T04:16:20.915Z,13
2018-05-17T04:17:20.359Z,13
2018-05-17T04:18:41.464Z,15
2018-05-17T04:19:54.132Z,16
2018-05-17T04:20:41.545Z,16
2018-05-17T04:21:42.186Z,16
2018-05-17T04:22:41.826Z,16
2018-05-17T04:23:42.235Z,17
2018-05-17T04:25:24.963Z,18
2018-05-17T04:26:25.476Z,17
2018-05-17T04:27:24.968Z,18
2018-05-17T04:28:25.666Z,20
2018-05-17T04:29:25.138Z,21
2018-05-17T04:30:25.658Z,21
2018-05-17T04:31:25.560Z,22
2018-05-17T04:32:25.282Z,24
2018-05-17T04:33:25.125Z,23
2018-05-17T04:34:25.500Z,24
2018-05-17T04:35:25.012Z,25
2018-05-17T04:36:25.541Z,27
2018-05-17T04:37:25.055Z,28
2018-05-17T04:38:46.631Z,27
2018-05-17T04:39:47.396Z,28
2018-05-17T04:40:46.827Z,30
2018-05-17T04:41:47.337Z,33
2018-05-17T04:42:46.806Z,30
2018-05-17T04:43:47.492Z,29
2018-05-17T04:44:46.866Z,29
2018-05-17T04:45:47.391Z,29
2018-05-17T04:46:47.254Z,28
2018-05-17T04:47:47.114Z,29
2018-05-17T04:48:46.958Z,29
2018-05-17T04:49:47.394Z,29
2018-05-17T04:50:47.282Z,30
2018-05-17T04:51:47.063Z,30
2018-05-17T04:52:46.769Z,31
2018-05-17T04:53:47.350Z,32
2018-05-17T04:54:47.447Z,35
2018-05-17T04:55:47.242Z,33
2018-05-17T04:56:46.976Z,36
2018-05-17T04:57:46.852Z,38
2018-05-17T04:58:47.539Z,40
2018-05-17T04:59:47.213Z,42
2018-05-17T05:01:08.168Z,42
2018-05-17T05:02:08.683Z,49
2018-05-17T05:03:08.428Z,53
2018-05-17T05:04:09.035Z,49
2018-05-17T05:05:08.605Z,48
2018-05-17T05:06:08.099Z,47
2018-05-17T05:07:31.948Z,48
2018-05-17T05:08:32.875Z,46
2018-05-17T05:10:15.605Z,47
2018-05-17T05:11:15.137Z,46
2018-05-17T05:12:15.948Z,48
2018-05-17T05:13:15.409Z,47
2018-05-17T05:14:15.425Z,50
2018-05-17T05:15:15.836Z,47
2018-05-17T05:16:15.481Z,48
2018-05-17T05:17:15.443Z,50
2018-05-17T05:18:15.034Z,49
2018-05-17T05:19:15.580Z,55
2018-05-17T05:20:15.435Z,63
2018-05-17T05:21:36.480Z,60
2018-05-17T05:23:19.825Z,57
2018-05-17T05:24:21.240Z,63
2018-05-17T05:25:20.040Z,61
2018-05-17T05:26:21.293Z,57
2018-05-17T05:27:19.812Z,56
2018-05-17T05:28:20.443Z,56
2018-05-17T05:29:41.436Z,61
2018-05-17T05:30:42.106Z,60
2018-05-17T05:31:41.834Z,63
2018-05-17T05:32:41.825Z,69
2018-05-17T05:33:41.464Z,69
2018-05-17T05:34:41.926Z,66
2018-05-17T05:35:41.818Z,67
2018-05-17T05:36:41.429Z,67
2018-05-17T05:37:41.976Z,64
2018-05-17T05:38:41.836Z,63
2018-05-17T05:39:41.629Z,63
2018-05-17T05:40:42.172Z,68
2018-05-17T05:42:03.065Z,71
2018-05-17T05:43:03.811Z,65
2018-05-17T05:44:03.438Z,66
2018-05-17T05:45:03.516Z,70
2018-05-17T05:46:04.486Z,77
2018-05-17T05:47:03.997Z,74
2018-05-17T05:48:03.773Z,70
2018-05-17T05:49:03.409Z,71
2018-05-17T05:50:04.452Z,70
2018-05-17T05:51:04.502Z,72
2018-05-17T05:52:04.099Z,72
2018-05-17T05:53:03.870Z,75
2018-05-17T05:54:03.259Z,73
2018-05-17T05:55:04.050Z,75
2018-05-17T05:56:03.702Z,91
2018-05-17T05:57:03.444Z,93
2018-05-17T05:58:04.129Z,86
2018-05-17T05:59:03.797Z,85
2018-05-17T06:00:03.294Z,84
2018-05-17T06:01:04.407Z,86
2018-05-17T06:02:04.054Z,85
2018-05-17T06:03:03.740Z,83
2018-05-17T06:04:03.430Z,84
2018-05-17T06:05:04.142Z,81
2018-05-17T06:06:03.588Z,85
2018-05-17T06:07:03.534Z,84
2018-05-17T06:08:03.457Z,85
2018-05-17T06:09:04.196Z,92
2018-05-17T06:10:03.784Z,93
2018-05-17T06:11:03.487Z,91
2018-05-17T06:12:04.242Z,90
2018-05-17T06:13:03.811Z,93
2018-05-17T06:14:03.454Z,97
2018-05-17T06:15:04.198Z,100
2018-05-17T06:16:04.101Z,101
2018-05-17T06:17:03.651Z,98
2018-05-17T06:18:03.940Z,94
2018-05-17T06:19:03.611Z,99
2018-05-17T06:20:03.592Z,107
2018-05-17T06:21:03.478Z,101
2018-05-17T06:22:04.058Z,100
2018-05-17T06:23:03.726Z,102
2018-05-17T06:24:24.834Z,114
2018-05-17T06:25:25.660Z,121
2018-05-17T06:26:37.656Z,110
2018-05-17T06:27:26.793Z,105
2018-05-17T06:28:25.279Z,103
2018-05-17T06:29:26.003Z,106
2018-05-17T06:30:25.628Z,103
2018-05-17T06:31:25.422Z,100
2018-05-17T06:32:24.917Z,98
2018-05-17T06:33:47.119Z,109
2018-05-17T06:34:48.121Z,113
2018-05-17T06:35:48.161Z,116
2018-05-17T06:37:30.700Z,122
2018-05-17T06:38:31.453Z,121
2018-05-17T06:39:31.200Z,125
2018-05-17T06:40:30.969Z,135
2018-05-17T06:41:31.046Z,141
2018-05-17T06:42:30.421Z,142
2018-05-17T06:43:31.314Z,134
2018-05-17T06:44:31.156Z,135
2018-05-17T06:45:31.781Z,143
2018-05-17T06:46:31.708Z,142
2018-05-17T06:47:31.622Z,165
2018-05-17T06:48:31.552Z,206
2018-05-17T06:49:31.458Z,323
2018-05-17T06:50:31.653Z,236
2018-05-17T06:51:31.251Z,311
2018-05-17T06:52:31.649Z,231
2018-05-17T06:53:31.243Z,211
2018-05-17T06:54:31.286Z,206
2018-05-17T06:55:30.713Z,203
2018-05-17T06:56:31.485Z,198
2018-05-17T06:57:31.249Z,217
2018-05-17T06:58:30.930Z,212
2018-05-17T06:59:30.645Z,229
2018-05-17T07:00:31.535Z,203
2018-05-17T07:01:31.553Z,206
2018-05-17T07:02:31.273Z,254
2018-05-17T07:03:31.093Z,266
2018-05-17T07:04:30.963Z,458
2018-05-17T07:05:30.813Z,548
2018-05-17T07:06:30.513Z,548
2018-05-17T07:07:31.198Z,259
2018-05-17T07:08:30.658Z,235
2018-05-17T07:09:31.584Z,241
2018-05-17T07:10:31.439Z,243
2018-05-17T07:11:31.020Z,234
2018-05-17T07:12:30.806Z,250
2018-05-17T07:13:31.399Z,217
2018-05-17T07:14:31.134Z,203
2018-05-17T07:15:30.987Z,190
2018-05-17T07:16:31.683Z,190
2018-05-17T07:17:31.168Z,199
2018-05-17T07:18:31.003Z,426
2018-05-17T07:20:13.609Z,167
2018-05-17T07:21:57.251Z,187
2018-05-17T07:22:57.931Z,205
2018-05-17T07:24:18.872Z,212
2018-05-17T07:25:19.610Z,195
2018-05-17T07:26:19.482Z,180
2018-05-17T07:27:41.095Z,189
2018-05-17T07:28:42.171Z,208
2018-05-17T07:29:41.030Z,206
2018-05-17T07:30:41.719Z,202
2018-05-17T07:31:41.441Z,189
2018-05-17T07:32:41.079Z,200
2018-05-17T07:33:42.277Z,216
2018-05-17T07:34:41.177Z,231
2018-05-17T07:35:41.789Z,248
2018-05-17T07:36:41.305Z,256
2018-05-17T07:37:41.198Z,212
2018-05-17T07:38:41.843Z,201
2018-05-17T07:39:41.428Z,198
2018-05-17T07:40:41.040Z,197
2018-05-17T07:41:41.685Z,186
2018-05-17T07:42:41.282Z,183
2018-05-17T07:43:41.060Z,196
2018-05-17T07:44:40.887Z,195
2018-05-17T07:45:41.855Z,189
2018-05-17T07:46:41.431Z,181
2018-05-17T07:47:41.296Z,180
2018-05-17T07:48:42.225Z,616
2018-05-17T07:49:40.762Z,639
2018-05-17T07:50:41.636Z,315
2018-05-17T07:51:41.406Z,357
2018-05-17T07:52:41.172Z,294
2018-05-17T07:53:41.013Z,358
2018-05-17T07:54:42.287Z,590
2018-05-17T07:55:41.346Z,332
2018-05-17T07:56:41.367Z,313
2018-05-17T07:57:41.002Z,272
2018-05-17T07:58:41.666Z,238
2018-05-17T08:00:03.423Z,219
2018-05-17T08:01:25.591Z,211
2018-05-17T08:02:26.273Z,217
2018-05-17T08:03:26.098Z,223
2018-05-17T08:04:26.912Z,223
2018-05-17T08:05:26.746Z,212
2018-05-17T08:06:26.721Z,245
2018-05-17T08:07:26.459Z,267
2018-05-17T08:08:26.202Z,268
2018-05-17T08:09:26.181Z,236
2018-05-17T08:10:26.067Z,226
2018-05-17T08:11:47.478Z,245
2018-05-17T08:14:14.823Z,222
2018-05-17T08:15:14.574Z,213
2018-05-17T08:16:15.036Z,206
2018-05-17T08:17:14.691Z,192
2018-05-17T08:18:14.276Z,222
2018-05-17T08:19:15.134Z,571
2018-05-17T08:20:15.070Z,271
2018-05-17T08:21:15.043Z,232
2018-05-17T08:22:14.970Z,607
2018-05-17T08:23:14.619Z,606
2018-05-17T08:24:14.270Z,561
2018-05-17T08:25:14.828Z,653
2018-05-17T08:26:14.372Z,629
2018-05-17T08:27:15.495Z,780
2018-05-17T08:28:14.597Z,347
2018-05-17T08:29:36.636Z,335
2018-05-17T08:30:37.133Z,279
2018-05-17T08:31:58.878Z,254
2018-05-17T08:32:59.912Z,277
2018-05-17T08:33:59.625Z,311
2018-05-17T08:34:59.331Z,391
2018-05-17T08:35:58.987Z,292
2018-05-17T08:36:59.742Z,279
2018-05-17T08:37:59.715Z,263
2018-05-17T08:38:59.501Z,261
2018-05-17T08:39:59.445Z,258
2018-05-17T08:40:59.387Z,357
2018-05-17T08:42:20.441Z,407
2018-05-17T08:43:21.428Z,333
2018-05-17T08:44:42.412Z,323
2018-05-17T08:45:43.250Z,362
2018-05-17T08:46:42.825Z,436
2018-05-17T08:47:42.541Z,328
2018-05-17T08:48:43.512Z,306
2018-05-17T08:49:43.042Z,431
2018-05-17T08:50:42.831Z,449
2018-05-17T08:52:03.908Z,359
2018-05-17T08:53:04.869Z,358
2018-05-17T08:54:26.258Z,351
2018-05-17T08:55:26.896Z,736
2018-05-17T08:56:48.021Z,595
2018-05-17T08:57:49.064Z,352
2018-05-17T08:59:10.642Z,337
2018-05-17T09:00:11.523Z,338
2018-05-17T09:01:33.086Z,326
2018-05-17T09:02:55.027Z,293
2018-05-17T09:03:55.647Z,339
2018-05-17T09:04:55.847Z,705
2018-05-17T09:05:55.465Z,678
2018-05-17T09:06:57.192Z,710
2018-05-17T09:08:17.082Z,720
2018-05-17T09:09:17.901Z,714
2018-05-17T09:10:17.679Z,736
2018-05-17T09:11:17.234Z,592
2018-05-17T09:12:18.035Z,430
2018-05-17T09:13:39.151Z,766
2018-05-17T09:14:39.617Z,754
2018-05-17T09:15:39.551Z,755
2018-05-17T09:16:39.276Z,770
2018-05-17T09:17:42.426Z,783
2018-05-17T09:19:01.550Z,668
2018-05-17T09:20:01.528Z,664
2018-05-17T09:21:01.138Z,447
2018-05-17T09:22:01.995Z,356
2018-05-17T09:23:02.632Z,318
2018-05-17T09:24:01.359Z,328
2018-05-17T09:25:01.008Z,802
2018-05-17T09:26:01.614Z,363
2018-05-17T09:27:01.695Z,395
2018-05-17T09:28:01.109Z,583
2018-05-17T09:29:02.035Z,378
2018-05-17T09:30:01.633Z,300
2018-05-17T09:31:01.372Z,334
2018-05-17T09:32:01.029Z,501
2018-05-17T09:33:01.981Z,559
2018-05-17T09:34:02.583Z,667
2018-05-17T09:35:01.214Z,724
2018-05-17T09:36:00.958Z,716
2018-05-17T09:37:01.602Z,351
2018-05-17T09:38:01.991Z,815
2018-05-17T09:39:25.936Z,583
2018-05-17T09:40:26.702Z,367
2018-05-17T09:41:26.649Z,385
2018-05-17T09:42:26.326Z,532
2018-05-17T09:43:25.849Z,756
2018-05-17T09:44:26.766Z,791
2018-05-17T09:45:26.479Z,802
2018-05-17T09:46:26.217Z,301
2018-05-17T09:47:26.038Z,784
2018-05-17T09:48:47.133Z,307
2018-05-17T09:49:47.806Z,698
2018-05-17T09:50:47.494Z,778
2018-05-17T09:51:47.293Z,779
2018-05-17T09:52:48.058Z,787
2018-05-17T09:53:48.039Z,779
2018-05-17T09:54:47.647Z,761
2018-05-17T09:55:47.301Z,754
2018-05-17T09:56:47.156Z,789
2018-05-17T09:57:47.864Z,451
2018-05-17T09:58:47.864Z,405
2018-05-17T09:59:47.458Z,501
2018-05-17T10:00:46.981Z,438
2018-05-17T10:01:47.658Z,678
2018-05-17T10:02:47.480Z,719
2018-05-17T10:03:47.445Z,810
2018-05-17T10:04:47.155Z,691
2018-05-17T10:05:48.112Z,441
2018-05-17T10:06:48.103Z,740
2018-05-17T10:08:09.532Z,763
2018-05-17T10:09:10.451Z,413
2018-05-17T10:10:10.312Z,361
2018-05-17T10:11:09.963Z,475
2018-05-17T10:12:31.667Z,839
2018-05-17T10:13:32.400Z,727
2018-05-17T10:14:32.081Z,532
2018-05-17T10:15:31.789Z,696
2018-05-17T10:16:54.359Z,666
2018-05-17T10:17:54.235Z,653
2018-05-17T10:18:54.768Z,648
2018-05-17T10:19:54.948Z,654
2018-05-17T10:20:54.664Z,651
2018-05-17T10:21:54.429Z,633
2018-05-17T10:22:55.241Z,635
2018-05-17T10:23:54.222Z,651
2018-05-17T10:24:54.747Z,692
2018-05-17T10:25:54.658Z,239
2018-05-17T10:26:54.272Z,214
2018-05-17T10:27:54.176Z,740
2018-05-17T10:28:54.891Z,737
2018-05-17T10:29:54.444Z,690
2018-05-17T10:30:54.128Z,699
2018-05-17T10:31:54.728Z,707
2018-05-17T10:32:54.571Z,701
2018-05-17T10:33:54.133Z,693
2018-05-17T10:34:54.978Z,703
2018-05-17T10:35:54.637Z,819
2018-05-17T10:36:54.165Z,564
2018-05-17T10:37:54.124Z,542
2018-05-17T10:39:16.051Z,400
2018-05-17T10:40:16.669Z,332
2018-05-17T10:41:16.606Z,730
2018-05-17T10:42:16.436Z,752
2018-05-17T10:43:15.967Z,720
2018-05-17T10:44:38.702Z,711
2018-05-17T10:45:39.358Z,558
2018-05-17T10:46:39.138Z,327
2018-05-17T10:48:00.643Z,364
2018-05-17T10:49:00.564Z,318
2018-05-17T10:50:01.275Z,314
2018-05-17T10:51:00.879Z,686
2018-05-17T10:52:00.765Z,689
2018-05-17T10:53:00.467Z,663
2018-05-17T10:54:01.191Z,621
2018-05-17T10:55:01.036Z,647
2018-05-17T10:56:00.784Z,491
2018-05-17T10:57:00.848Z,717
2018-05-17T10:58:01.566Z,520
2018-05-17T10:59:01.423Z,346
2018-05-17T11:00:45.302Z,211
2018-05-17T11:01:45.620Z,662
2018-05-17T11:02:49.588Z,395
2018-05-17T11:03:45.158Z,600
2018-05-17T11:04:46.128Z,633
2018-05-17T11:05:44.589Z,665
2018-05-17T11:06:44.663Z,661
2018-05-17T11:07:44.382Z,654
2018-05-17T11:08:45.088Z,665
2018-05-17T11:09:44.839Z,706
2018-05-17T11:11:06.318Z,719
2018-05-17T11:12:28.251Z,688
2018-05-17T11:13:29.184Z,709
2018-05-17T11:14:28.992Z,593
2018-05-17T11:15:28.644Z,664
2018-05-17T11:16:28.594Z,655
2018-05-17T11:17:29.238Z,700
2018-05-17T11:18:29.269Z,699
2018-05-17T11:19:29.006Z,659
2018-05-17T11:20:50.651Z,640
2018-05-17T11:21:50.469Z,641
2018-05-17T11:22:50.330Z,646
2018-05-17T11:23:51.031Z,664
2018-05-17T11:24:50.959Z,696
2018-05-17T11:25:50.667Z,712
2018-05-17T11:26:50.407Z,747
2018-05-17T11:27:51.354Z,775
2018-05-17T11:29:12.763Z,329
2018-05-17T11:30:13.525Z,686
2018-05-17T11:31:13.853Z,556
2018-05-17T11:32:13.601Z,419
2018-05-17T11:33:13.349Z,480
2018-05-17T11:34:12.917Z,772
2018-05-17T11:35:13.647Z,477
2018-05-17T11:36:13.354Z,618
2018-05-17T11:37:13.202Z,724
2018-05-17T11:38:13.218Z,704
2018-05-17T11:39:13.449Z,683
2018-05-17T11:40:13.417Z,728
2018-05-17T11:41:13.460Z,816
2018-05-17T11:42:13.202Z,737
2018-05-17T11:43:12.896Z,384
2018-05-17T11:44:13.874Z,842
2018-05-17T11:45:13.748Z,504
2018-05-17T11:46:13.368Z,309
2018-05-17T11:47:58.912Z,905
2018-05-17T11:48:58.529Z,928
2018-05-17T11:49:59.278Z,336
2018-05-17T11:50:58.902Z,743
2018-05-17T11:51:58.572Z,335
2018-05-17T11:52:59.101Z,781
2018-05-17T11:53:58.574Z,793
2018-05-17T11:54:59.196Z,791
2018-05-17T11:55:58.784Z,785
2018-05-17T11:56:58.569Z,777
2018-05-17T11:57:58.356Z,763
2018-05-17T11:59:20.408Z,770
2018-05-17T12:00:21.263Z,795
2018-05-17T12:01:21.143Z,835
2018-05-17T12:02:21.435Z,838
2018-05-17T12:03:21.255Z,839
2018-05-17T12:04:21.142Z,736
2018-05-17T12:05:20.928Z,798
2018-05-17T12:06:21.523Z,796
2018-05-17T12:07:21.270Z,546
2018-05-17T12:08:21.177Z,799
2018-05-17T12:09:20.973Z,616
2018-05-17T12:10:20.566Z,785
2018-05-17T12:11:21.169Z,261
2018-05-17T12:12:20.927Z,596
2018-05-17T12:13:20.540Z,444
2018-05-17T12:14:21.298Z,688
2018-05-17T12:15:21.175Z,778
2018-05-17T12:16:21.013Z,776
2018-05-17T12:17:20.532Z,750
2018-05-17T12:18:23.712Z,742
2018-05-17T12:19:21.367Z,762
2018-05-17T12:20:21.103Z,769
2018-05-17T12:21:21.400Z,764
2018-05-17T12:22:21.200Z,790
2018-05-17T12:23:20.823Z,791
2018-05-17T12:24:21.364Z,794
2018-05-17T12:25:20.782Z,215
2018-05-17T12:26:31.673Z,696
2018-05-17T12:27:21.623Z,615
2018-05-17T12:28:21.213Z,763
2018-05-17T12:29:21.007Z,760
2018-05-17T12:30:42.540Z,795
2018-05-17T12:31:43.267Z,805
2018-05-17T12:32:42.929Z,777
2018-05-17T12:33:42.677Z,504
2018-05-17T12:34:42.795Z,748
2018-05-17T12:35:42.905Z,736
2018-05-17T12:36:42.561Z,717
2018-05-17T12:37:43.254Z,684
2018-05-17T12:38:43.128Z,701
2018-05-17T12:39:44.131Z,712
2018-05-17T12:40:43.223Z,404
2018-05-17T12:41:43.077Z,640
2018-05-17T12:43:05.874Z,751
2018-05-17T12:44:29.152Z,746
2018-05-17T12:45:29.098Z,739
2018-05-17T12:46:28.860Z,693
2018-05-17T12:47:30.163Z,673
2018-05-17T12:48:29.107Z,705
2018-05-17T12:49:52.701Z,731
2018-05-17T12:50:52.489Z,756
2018-05-17T12:51:54.595Z,797
2018-05-17T12:52:52.496Z,824
2018-05-17T12:53:52.282Z,762
2018-05-17T12:54:53.192Z,692
2018-05-17T12:55:52.837Z,685
2018-05-17T12:56:52.696Z,676
2018-05-17T12:57:52.621Z,667
2018-05-17T12:59:36.145Z,503
2018-05-17T13:00:38.821Z,319
2018-05-17T13:02:20.308Z,405
2018-05-17T13:03:20.820Z,572
2018-05-17T13:04:43.756Z,367
2018-05-17T13:05:43.472Z,332
2018-05-17T13:06:43.252Z,594
2018-05-17T13:07:42.986Z,578
2018-05-17T13:08:42.972Z,346
2018-05-17T13:09:44.403Z,280
2018-05-17T13:10:44.333Z,825
2018-05-17T13:11:43.128Z,758
2018-05-17T13:12:43.388Z,302
2018-05-17T13:13:47.436Z,481
2018-05-17T13:14:43.206Z,464
2018-05-17T13:15:43.216Z,311
2018-05-17T13:16:43.607Z,298
2018-05-17T13:17:45.693Z,654
2018-05-17T13:18:43.065Z,691
2018-05-17T13:19:43.656Z,355
2018-05-17T13:21:05.810Z,344
2018-05-17T13:22:05.586Z,357
2018-05-17T13:23:05.130Z,405
2018-05-17T13:24:05.909Z,704
2018-05-17T13:25:06.008Z,463
2018-05-17T13:26:06.217Z,369
2018-05-17T13:27:06.499Z,330
2018-05-17T13:28:05.188Z,332
2018-05-17T13:29:07.278Z,345
2018-05-17T13:30:05.721Z,316
2018-05-17T13:31:08.393Z,348
2018-05-17T13:32:05.834Z,304
2018-05-17T13:33:13.295Z,292
2018-05-17T13:34:06.280Z,296
2018-05-17T13:35:09.607Z,284
2018-05-17T13:36:07.826Z,267
2018-05-17T13:37:06.008Z,257
2018-05-17T13:38:13.128Z,272
2018-05-17T13:39:08.368Z,386
2018-05-17T13:40:05.633Z,495
2018-05-17T13:41:08.676Z,335
2018-05-17T13:42:06.484Z,337
2018-05-17T13:43:05.167Z,276
2018-05-17T13:44:06.329Z,291
2018-05-17T13:45:05.137Z,315
2018-05-17T13:46:06.069Z,309
2018-05-17T13:47:08.270Z,394
2018-05-17T13:48:05.821Z,289
2018-05-17T13:49:06.000Z,283
2018-05-17T13:50:27.816Z,295
2018-05-17T13:51:28.984Z,254
2018-05-17T13:52:27.888Z,258
2018-05-17T13:53:29.594Z,265
2018-05-17T13:54:30.594Z,270
2018-05-17T13:55:28.293Z,274
2018-05-17T13:56:28.313Z,286
2018-05-17T13:57:28.251Z,304
2018-05-17T13:58:28.055Z,310
2018-05-17T13:59:51.333Z,261
2018-05-17T14:00:51.833Z,233
2018-05-17T14:01:57.546Z,216
2018-05-17T14:03:37.215Z,209
2018-05-17T14:04:57.136Z,201
2018-05-17T14:05:57.568Z,190
2018-05-17T14:07:20.219Z,191
2018-05-17T14:08:21.489Z,200
2018-05-17T14:09:20.243Z,201
2018-05-17T14:10:20.087Z,194
2018-05-17T14:11:20.014Z,187
2018-05-17T14:12:20.661Z,178
2018-05-17T14:13:20.508Z,171
2018-05-17T14:14:20.375Z,170
2018-05-17T14:15:21.279Z,177
2018-05-17T14:16:22.667Z,193
2018-05-17T14:17:20.542Z,193
2018-05-17T14:18:20.736Z,181
2018-05-17T14:19:21.389Z,179
2018-05-17T14:20:42.261Z,183
2018-05-17T14:21:43.109Z,181
2018-05-17T14:22:42.771Z,181
2018-05-17T14:23:42.590Z,180
2018-05-17T14:25:04.213Z,174
2018-05-17T14:26:05.008Z,174
2018-05-17T14:27:27.549Z,165
2018-05-17T14:28:28.501Z,159
2018-05-17T14:29:28.354Z,155
2018-05-17T14:30:27.875Z,153
2018-05-17T14:31:27.722Z,151
2018-05-17T14:32:49.124Z,145
2018-05-17T14:33:51.157Z,147
2018-05-17T14:34:49.872Z,148
2018-05-17T14:35:50.038Z,148
2018-05-17T14:36:49.502Z,150
2018-05-17T14:37:50.256Z,152
2018-05-17T14:38:50.258Z,159
2018-05-17T14:39:50.958Z,165
2018-05-17T14:40:49.863Z,162
2018-05-17T14:41:49.573Z,156
2018-05-17T14:42:49.468Z,153
2018-05-17T14:44:32.721Z,142
2018-05-17T14:45:32.798Z,141